createdAt,value
2023-05-24T00:01:50.610Z,52.51
2023-05-24T00:04:19.394Z,52.14
2023-05-24T00:06:47.944Z,51.86
2023-05-24T00:09:16.397Z,51.80
2023-05-24T00:11:44.754Z,51.82
2023-05-24T00:14:13.253Z,51.66
2023-05-24T00:16:41.785Z,51.54
2023-05-24T00:19:10.756Z,51.64
2023-05-24T00:21:39.166Z,51.64
2023-05-24T00:24:07.671Z,51.65
2023-05-24T00:26:36.438Z,51.57
2023-05-24T00:29:05.020Z,51.40
2023-05-24T00:31:33.573Z,51.43
2023-05-24T00:34:01.922Z,51.25
2023-05-24T00:36:30.594Z,50.80
2023-05-24T00:38:59.121Z,50.83
2023-05-24T00:41:27.518Z,50.71
2023-05-24T00:43:56.045Z,50.56
2023-05-24T00:46:28.957Z,50.62
2023-05-24T00:48:57.657Z,50.94
2023-05-24T00:51:27.312Z,50.83
2023-05-24T00:53:56.402Z,50.99
2023-05-24T00:56:26.094Z,51.10
2023-05-24T00:58:55.376Z,50.99
2023-05-24T01:01:25.345Z,51.30
2023-05-24T01:03:54.857Z,51.07
2023-05-24T01:06:26.611Z,51.15
2023-05-24T01:09:09.460Z,51.18
2023-05-24T01:11:48.424Z,51.61
2023-05-24T01:14:23.228Z,50.96
2023-05-24T01:16:57.586Z,50.71
2023-05-24T01:19:42.711Z,50.40
2023-05-24T01:22:25.095Z,50.23
2023-05-24T01:25:02.940Z,50.05
2023-05-24T01:27:33.386Z,50.34
2023-05-24T01:30:03.600Z,50.25
2023-05-24T01:32:32.553Z,50.23
2023-05-24T01:35:01.052Z,49.72
2023-05-24T01:37:29.396Z,49.55
2023-05-24T01:39:57.809Z,49.56
2023-05-24T01:42:34.102Z,49.62
2023-05-24T01:45:08.902Z,49.57
2023-05-24T01:47:47.172Z,49.87
2023-05-24T01:50:20.391Z,49.90
2023-05-24T01:52:50.588Z,50.33
2023-05-24T01:55:19.294Z,50.25
2023-05-24T01:57:48.896Z,50.57
2023-05-24T02:00:19.424Z,50.72
2023-05-24T02:02:48.079Z,50.65
2023-05-24T02:05:19.404Z,50.54
2023-05-24T02:07:47.821Z,50.87
2023-05-24T02:10:16.181Z,50.40
2023-05-24T02:12:44.691Z,50.85
2023-05-24T02:15:14.218Z,51.36
2023-05-24T02:17:42.782Z,51.38
2023-05-24T02:20:13.153Z,51.11
2023-05-24T02:22:41.607Z,51.79
2023-05-24T02:25:10.419Z,52.47
2023-05-24T02:27:38.788Z,52.75
2023-05-24T02:30:10.088Z,52.89
2023-05-24T02:32:38.614Z,53.11
2023-05-24T02:35:07.757Z,53.23
2023-05-24T02:37:36.607Z,53.30
2023-05-24T02:40:07.351Z,52.98
2023-05-24T02:42:35.742Z,52.87
2023-05-24T02:45:05.178Z,53.14
2023-05-24T02:47:33.476Z,52.77
2023-05-24T02:50:01.926Z,53.30
2023-05-24T02:52:30.475Z,53.44
2023-05-24T02:54:59.185Z,53.53
2023-05-24T02:57:28.465Z,53.42
2023-05-24T02:59:57.328Z,53.68
2023-05-24T03:02:27.930Z,54.46
2023-05-24T03:04:56.517Z,54.31
2023-05-24T03:07:25.097Z,54.42
2023-05-24T03:09:53.699Z,54.01
2023-05-24T03:12:23.061Z,53.68
2023-05-24T03:14:52.500Z,54.23
2023-05-24T03:17:21.239Z,53.94
2023-05-24T03:19:51.899Z,53.42
2023-05-24T03:22:20.415Z,53.02
2023-05-24T03:24:49.685Z,53.45
2023-05-24T03:27:18.446Z,53.17
2023-05-24T03:29:46.951Z,53.30
2023-05-24T03:32:16.420Z,52.89
2023-05-24T03:34:45.345Z,52.73
2023-05-24T03:37:15.165Z,53.56
2023-05-24T03:39:44.808Z,53.06
2023-05-24T03:42:36.042Z,52.61
2023-05-24T03:45:06.925Z,52.59
2023-05-24T03:47:35.476Z,52.38
2023-05-24T03:50:05.743Z,52.37
2023-05-24T03:52:34.202Z,52.31
2023-05-24T03:55:02.759Z,52.31
2023-05-24T03:57:31.498Z,51.99
2023-05-24T04:00:00.356Z,51.91
2023-05-24T04:02:29.468Z,51.74
2023-05-24T04:04:58.108Z,51.73
2023-05-24T04:07:27.935Z,51.41
2023-05-24T04:09:56.556Z,51.47
2023-05-24T04:12:25.156Z,51.31
2023-05-24T04:14:53.761Z,51.25
2023-05-24T04:17:24.109Z,51.38
2023-05-24T04:19:52.928Z,51.07
2023-05-24T04:22:23.742Z,51.18
2023-05-24T04:24:54.189Z,51.59
2023-05-24T04:27:25.586Z,51.49
2023-05-24T04:29:54.458Z,51.55
2023-05-24T04:32:23.351Z,52.02
2023-05-24T04:34:52.484Z,52.58
2023-05-24T04:37:21.340Z,52.41
2023-05-24T04:39:51.006Z,52.57
2023-05-24T04:42:19.602Z,51.97
2023-05-24T04:44:48.119Z,51.90
2023-05-24T04:47:17.011Z,51.18
2023-05-24T04:49:45.617Z,51.53
2023-05-24T04:52:14.382Z,51.26
2023-05-24T04:54:43.038Z,51.21
2023-05-24T04:57:11.633Z,50.86
2023-05-24T04:59:40.085Z,51.22
2023-05-24T05:02:08.808Z,50.88
2023-05-24T05:04:37.467Z,50.50
2023-05-24T05:07:06.619Z,50.31
2023-05-24T05:09:35.297Z,49.74
2023-05-24T05:12:04.243Z,50.32
2023-05-24T05:14:32.969Z,50.10
2023-05-24T05:17:01.521Z,51.12
2023-05-24T05:19:34.096Z,50.46
2023-05-24T05:22:03.279Z,48.90
2023-05-24T05:24:31.846Z,48.15
2023-05-24T05:27:00.527Z,47.49
2023-05-24T05:29:29.251Z,47.27
2023-05-24T05:31:57.844Z,46.64
2023-05-24T05:34:26.346Z,46.41
2023-05-24T05:36:54.836Z,45.94
2023-05-24T05:39:23.352Z,45.67
2023-05-24T05:41:51.909Z,45.98
2023-05-24T05:44:20.590Z,45.30
2023-05-24T05:46:49.042Z,45.09
2023-05-24T05:49:17.954Z,44.37
2023-05-24T05:51:46.776Z,44.70
2023-05-24T05:54:17.697Z,44.57
2023-05-24T05:56:47.363Z,44.12
2023-05-24T05:59:16.299Z,43.65
2023-05-24T06:01:46.828Z,43.20
2023-05-24T06:04:15.769Z,42.76
2023-05-24T06:06:48.749Z,42.51
2023-05-24T06:09:17.255Z,42.26
2023-05-24T06:11:45.850Z,41.90
2023-05-24T06:14:17.587Z,41.92
2023-05-24T06:16:47.327Z,41.20
2023-05-24T06:19:16.297Z,41.00
2023-05-24T06:21:47.274Z,40.98
2023-05-24T06:24:19.667Z,42.26
2023-05-24T06:26:48.414Z,41.78
2023-05-24T06:29:19.071Z,41.61
2023-05-24T06:31:47.947Z,39.40
2023-05-24T06:34:18.236Z,38.57
2023-05-24T06:36:47.878Z,37.45
2023-05-24T06:39:17.159Z,37.52
2023-05-24T06:41:46.477Z,37.43
2023-05-24T06:44:15.764Z,37.04
2023-05-24T06:46:44.521Z,37.46
2023-05-24T06:49:13.377Z,37.15
2023-05-24T06:51:41.972Z,36.61
2023-05-24T06:54:10.497Z,35.84
2023-05-24T06:56:39.299Z,33.93
2023-05-24T06:59:08.177Z,32.11
2023-05-24T07:01:39.140Z,31.79
2023-05-24T07:04:07.892Z,31.09
2023-05-24T07:06:37.287Z,29.25
2023-05-24T07:09:06.042Z,28.56
2023-05-24T07:11:35.025Z,27.91
2023-05-24T07:14:03.639Z,27.62
2023-05-24T07:16:32.125Z,27.30
2023-05-24T07:19:03.180Z,26.86
2023-05-24T07:21:33.173Z,26.43
2023-05-24T07:24:03.305Z,26.01
2023-05-24T07:26:31.884Z,26.83
2023-05-24T07:29:00.498Z,26.11
2023-05-24T07:31:30.779Z,25.17
2023-05-24T07:33:59.608Z,25.54
2023-05-24T07:39:03.215Z,25.57
2023-05-24T07:41:32.685Z,24.57
2023-05-24T07:44:01.100Z,24.59
2023-05-24T07:46:29.514Z,24.30
2023-05-24T07:48:58.025Z,24.66
2023-05-24T07:51:26.369Z,24.02
2023-05-24T07:53:55.319Z,24.69
2023-05-24T07:56:24.153Z,24.39
2023-05-24T07:58:56.214Z,24.47
2023-05-24T08:01:24.793Z,25.07
2023-05-24T08:03:53.304Z,26.30
2023-05-24T08:06:23.435Z,27.47
2023-05-24T08:08:51.946Z,26.97
2023-05-24T08:11:20.434Z,26.79
2023-05-24T08:13:48.877Z,27.59
2023-05-24T08:16:18.007Z,27.42
2023-05-24T08:18:46.449Z,27.71
2023-05-24T08:21:15.001Z,27.91
2023-05-24T08:23:44.513Z,28.75
2023-05-24T08:26:13.292Z,28.79
2023-05-24T08:28:42.397Z,29.47
2023-05-24T08:31:10.855Z,29.83
2023-05-24T08:33:39.715Z,29.23
2023-05-24T08:36:08.663Z,29.61
2023-05-24T08:38:37.060Z,29.96
2023-05-24T08:41:07.127Z,29.85
2023-05-24T08:43:35.712Z,29.77
2023-05-24T08:46:05.453Z,29.99
2023-05-24T08:48:35.415Z,30.61
2023-05-24T08:51:04.253Z,30.09
2023-05-24T08:53:33.192Z,31.24
2023-05-24T08:56:01.533Z,31.11
2023-05-24T08:58:31.358Z,31.17
2023-05-24T09:01:01.493Z,31.41
2023-05-24T09:03:35.383Z,30.13
2023-05-24T09:06:04.766Z,30.08
2023-05-24T09:08:34.539Z,31.09
2023-05-24T09:11:03.667Z,32.27
2023-05-24T09:13:32.095Z,31.58
2023-05-24T09:16:00.719Z,31.10
2023-05-24T09:18:29.435Z,32.32
2023-05-24T09:20:57.998Z,31.56
2023-05-24T09:23:26.711Z,30.91
2023-05-24T09:25:55.440Z,32.09
2023-05-24T09:28:24.412Z,32.05
2023-05-24T09:31:00.974Z,32.27
2023-05-24T09:33:32.870Z,30.96
2023-05-24T09:36:02.733Z,29.58
2023-05-24T09:38:31.332Z,30.58
2023-05-24T09:41:01.698Z,30.39
2023-05-24T09:43:31.104Z,30.48
2023-05-24T09:45:59.965Z,30.84
2023-05-24T09:48:29.176Z,31.80
2023-05-24T09:51:09.069Z,32.02
2023-05-24T09:53:38.035Z,33.07
2023-05-24T09:56:07.918Z,32.80
2023-05-24T09:58:36.502Z,32.24
2023-05-24T10:01:07.148Z,32.72
2023-05-24T10:03:36.886Z,32.63
2023-05-24T10:06:06.938Z,33.35
2023-05-24T10:08:35.951Z,33.32
2023-05-24T10:11:04.638Z,31.79
2023-05-24T10:13:35.147Z,31.00
2023-05-24T10:16:04.450Z,29.51
2023-05-24T10:18:32.947Z,29.81
2023-05-24T10:21:02.187Z,29.20
2023-05-24T10:23:31.911Z,28.58
2023-05-24T10:26:06.164Z,29.29
2023-05-24T10:28:36.270Z,30.86
2023-05-24T10:31:10.487Z,31.41
2023-05-24T10:33:39.798Z,31.27
2023-05-24T10:36:10.491Z,30.68
2023-05-24T10:38:40.123Z,30.48
2023-05-24T10:41:08.940Z,31.86
2023-05-24T10:43:37.722Z,31.13
2023-05-24T10:46:09.434Z,31.39
2023-05-24T10:48:40.055Z,31.42
2023-05-24T10:51:39.055Z,31.27
2023-05-24T10:54:17.655Z,31.62
2023-05-24T10:56:47.503Z,32.17
2023-05-24T10:59:30.950Z,33.81
2023-05-24T11:02:00.288Z,33.24
2023-05-24T11:04:31.679Z,33.56
2023-05-24T11:07:03.914Z,33.58
2023-05-24T11:09:33.147Z,32.85
2023-05-24T11:12:03.723Z,33.00
2023-05-24T11:14:32.255Z,33.13
2023-05-24T11:17:01.454Z,32.77
2023-05-24T11:19:34.567Z,33.37
2023-05-24T11:22:04.537Z,33.49
2023-05-24T11:24:33.502Z,34.39
2023-05-24T11:27:03.874Z,34.33
2023-05-24T11:29:33.572Z,35.06
2023-05-24T11:32:04.181Z,34.38
2023-05-24T11:34:33.203Z,35.62
2023-05-24T11:37:02.643Z,35.26
2023-05-24T11:39:31.850Z,35.48
2023-05-24T11:42:00.764Z,35.38
2023-05-24T11:44:31.348Z,36.30
2023-05-24T11:47:00.357Z,36.08
2023-05-24T11:49:29.346Z,36.03
2023-05-24T11:51:58.764Z,36.75
2023-05-24T11:54:28.141Z,36.84
2023-05-24T11:56:56.827Z,37.66
2023-05-24T11:59:25.919Z,37.85
2023-05-24T12:02:05.026Z,38.21
2023-05-24T12:04:34.587Z,38.79
2023-05-24T12:07:03.507Z,41.73
2023-05-24T12:09:32.193Z,43.80
2023-05-24T12:12:01.340Z,46.28
2023-05-24T12:14:31.452Z,48.47
2023-05-24T12:17:00.628Z,51.19
2023-05-24T12:19:34.173Z,52.55
2023-05-24T12:22:06.818Z,55.44
2023-05-24T12:24:36.956Z,56.20
2023-05-24T12:27:06.797Z,57.52
2023-05-24T12:29:37.118Z,58.99
2023-05-24T12:32:11.206Z,59.09
2023-05-24T12:34:42.197Z,59.91
2023-05-24T12:37:14.785Z,59.30
2023-05-24T12:39:46.496Z,59.76
2023-05-24T12:42:14.844Z,60.11
2023-05-24T12:44:44.517Z,59.33
2023-05-24T12:47:12.921Z,59.45
2023-05-24T12:49:42.871Z,60.16
2023-05-24T12:52:12.420Z,61.47
2023-05-24T12:54:41.162Z,63.05
2023-05-24T12:57:09.925Z,63.41
2023-05-24T12:59:38.230Z,64.52
2023-05-24T13:02:07.258Z,66.03
2023-05-24T13:04:35.812Z,63.30
2023-05-24T13:07:04.614Z,63.45
2023-05-24T13:09:33.617Z,65.59
2023-05-24T13:12:02.383Z,66.08
2023-05-24T13:14:31.038Z,62.44
2023-05-24T13:16:59.672Z,64.32
2023-05-24T13:19:28.184Z,67.02
2023-05-24T13:21:56.590Z,68.04
2023-05-24T13:24:24.993Z,69.01
2023-05-24T13:26:54.824Z,70.09
2023-05-24T13:31:55.617Z,71.44
2023-05-24T13:34:25.120Z,71.95
2023-05-24T13:36:54.176Z,72.71
2023-05-24T13:39:23.140Z,72.95
2023-05-24T13:41:51.582Z,73.77
2023-05-24T13:44:20.000Z,73.67
2023-05-24T13:46:48.656Z,72.58
2023-05-24T13:49:17.047Z,71.88
2023-05-24T13:51:46.367Z,72.04
2023-05-24T13:54:14.791Z,71.15
2023-05-24T13:56:44.152Z,70.90
2023-05-24T13:59:12.902Z,70.85
2023-05-24T14:01:41.844Z,71.18
2023-05-24T14:04:10.227Z,70.76
2023-05-24T14:06:38.608Z,70.06
2023-05-24T14:09:07.900Z,70.08
2023-05-24T14:11:36.760Z,69.59
2023-05-24T14:16:37.021Z,70.16
2023-05-24T14:19:05.779Z,71.77
2023-05-24T14:21:37.459Z,72.05
2023-05-24T14:24:05.816Z,72.73
2023-05-24T14:26:34.322Z,72.46
2023-05-24T14:29:02.637Z,72.64
2023-05-24T14:31:31.018Z,72.77
2023-05-24T14:33:59.806Z,72.35
2023-05-24T14:36:28.215Z,72.48
2023-05-24T14:38:56.522Z,72.51
2023-05-24T14:41:25.658Z,72.80
2023-05-24T14:43:53.933Z,72.78
2023-05-24T14:46:22.369Z,73.27
2023-05-24T14:48:51.306Z,73.60
2023-05-24T14:51:19.888Z,73.52
2023-05-24T14:53:48.450Z,73.22
2023-05-24T14:56:17.008Z,73.40
2023-05-24T14:58:45.530Z,73.06
2023-05-24T15:01:14.104Z,73.17
2023-05-24T15:03:42.622Z,73.49
2023-05-24T15:06:11.061Z,73.10
2023-05-24T15:08:39.829Z,73.28
2023-05-24T15:11:08.235Z,73.45
2023-05-24T15:13:37.697Z,73.55
2023-05-24T15:16:06.575Z,73.66
2023-05-24T15:18:34.989Z,73.45
2023-05-24T15:21:03.492Z,73.79
2023-05-24T15:23:32.018Z,73.23
2023-05-24T15:26:01.501Z,72.96
2023-05-24T15:28:30.062Z,73.03
2023-05-24T15:30:59.148Z,73.28
2023-05-24T15:33:28.851Z,73.41
2023-05-24T15:35:57.862Z,73.31
2023-05-24T15:38:26.216Z,73.01
2023-05-24T15:40:54.927Z,72.48
2023-05-24T15:43:23.286Z,72.13
2023-05-24T15:45:51.630Z,71.21
2023-05-24T15:48:20.037Z,70.85
2023-05-24T15:51:25.671Z,70.68
2023-05-24T15:53:37.359Z,70.83
2023-05-24T15:56:06.936Z,70.78
2023-05-24T15:58:35.449Z,70.61
2023-05-24T16:01:03.911Z,71.03
2023-05-24T16:03:32.503Z,71.32
2023-05-24T16:06:01.013Z,71.44
2023-05-24T16:08:29.580Z,71.13
2023-05-24T16:10:58.523Z,69.83
2023-05-24T16:13:26.955Z,69.06
2023-05-24T16:15:55.383Z,69.28
2023-05-24T16:18:25.052Z,68.72
2023-05-24T16:20:53.466Z,68.82
2023-05-24T16:23:22.468Z,68.99
2023-05-24T16:25:51.053Z,69.14
2023-05-24T16:28:23.119Z,69.01
2023-05-24T16:30:54.824Z,68.65
2023-05-24T16:33:23.307Z,68.61
2023-05-24T16:35:55.133Z,67.92
2023-05-24T16:38:23.964Z,67.40
2023-05-24T16:40:53.435Z,66.68
2023-05-24T16:43:22.024Z,67.27
2023-05-24T16:45:50.884Z,66.78
2023-05-24T16:48:20.742Z,66.82
2023-05-24T16:50:50.959Z,67.10
2023-05-24T16:53:22.217Z,67.01
2023-05-24T16:55:53.230Z,67.00
2023-05-24T16:58:22.563Z,67.01
2023-05-24T17:00:53.474Z,67.52
2023-05-24T17:03:26.958Z,67.52
2023-05-24T17:05:56.896Z,67.40
2023-05-24T17:08:26.820Z,67.67
2023-05-24T17:10:56.376Z,68.08
2023-05-24T17:13:26.710Z,68.63
2023-05-24T17:15:55.409Z,68.15
2023-05-24T17:18:27.550Z,68.68
2023-05-24T17:20:58.049Z,68.43
2023-05-24T17:23:27.570Z,68.40
2023-05-24T17:25:56.320Z,68.45
2023-05-24T17:28:26.849Z,68.40
2023-05-24T17:30:55.608Z,68.43
2023-05-24T17:33:24.895Z,68.38
2023-05-24T17:35:55.710Z,68.60
2023-05-24T17:38:24.308Z,68.58
2023-05-24T17:40:56.217Z,68.52
2023-05-24T17:43:28.181Z,68.34
2023-05-24T17:46:02.387Z,68.28
2023-05-24T17:48:31.347Z,68.08
2023-05-24T17:51:00.824Z,68.06
2023-05-24T17:53:31.934Z,68.45
2023-05-24T17:56:00.937Z,68.48
2023-05-24T17:58:32.166Z,68.78
2023-05-24T18:01:00.686Z,69.06
2023-05-24T18:03:29.244Z,69.29
2023-05-24T18:05:57.561Z,68.46
2023-05-24T18:08:26.076Z,68.00
2023-05-24T18:10:54.751Z,68.06
2023-05-24T18:13:23.188Z,67.96
2023-05-24T18:15:52.295Z,68.07
2023-05-24T18:18:21.020Z,68.24
2023-05-24T18:20:51.323Z,68.48
2023-05-24T18:23:21.295Z,68.92
2023-05-24T18:25:51.865Z,69.30
2023-05-24T18:28:30.127Z,68.82
2023-05-24T18:30:58.484Z,68.74
2023-05-24T18:33:26.901Z,68.65
2023-05-24T18:35:55.519Z,69.05
2023-05-24T18:38:23.990Z,68.84
2023-05-24T18:40:52.587Z,68.88
2023-05-24T18:43:21.196Z,69.12
2023-05-24T18:45:52.067Z,68.98
2023-05-24T18:48:21.021Z,69.27
2023-05-24T18:50:53.159Z,69.30
2023-05-24T18:53:21.782Z,69.21
2023-05-24T18:55:53.932Z,69.13
2023-05-24T18:58:22.624Z,69.20
2023-05-24T19:00:51.489Z,69.40
2023-05-24T19:03:21.470Z,69.62
2023-05-24T19:05:52.010Z,69.89
2023-05-24T19:08:22.056Z,69.91
2023-05-24T19:10:51.125Z,69.60
2023-05-24T19:13:19.863Z,69.50
2023-05-24T19:15:48.398Z,69.51
2023-05-24T19:18:19.172Z,69.57
2023-05-24T19:20:48.027Z,69.71
2023-05-24T19:23:17.011Z,69.73
2023-05-24T19:25:49.403Z,69.72
2023-05-24T19:28:20.560Z,69.80
2023-05-24T19:30:49.060Z,69.84
2023-05-24T19:33:17.704Z,69.96
2023-05-24T19:35:46.508Z,69.94
2023-05-24T19:38:17.208Z,69.95
2023-05-24T19:40:46.508Z,69.85
2023-05-24T19:43:14.893Z,69.87
2023-05-24T19:45:43.589Z,69.78
2023-05-24T19:48:12.361Z,69.81
2023-05-24T19:50:40.778Z,69.85
2023-05-24T19:53:09.318Z,69.94
2023-05-24T19:55:37.790Z,69.78
2023-05-24T19:58:06.462Z,69.82
2023-05-24T20:00:35.071Z,69.95
2023-05-24T20:03:03.760Z,70.38
2023-05-24T20:05:32.439Z,70.43
2023-05-24T20:08:01.002Z,70.15
2023-05-24T20:10:31.263Z,70.36
2023-05-24T20:12:59.728Z,70.57
2023-05-24T20:15:28.230Z,70.61
2023-05-24T20:17:56.644Z,70.59
2023-05-24T20:20:25.622Z,70.70
2023-05-24T20:22:54.173Z,70.69
2023-05-24T20:25:22.569Z,70.53
2023-05-24T20:27:51.186Z,70.58
2023-05-24T20:30:19.757Z,70.88
2023-05-24T20:32:48.824Z,70.72
2023-05-24T20:35:17.462Z,70.73
2023-05-24T20:37:45.882Z,70.69
2023-05-24T20:40:15.394Z,70.88
2023-05-24T20:42:43.818Z,70.96
2023-05-24T20:45:12.906Z,70.96
2023-05-24T20:47:41.430Z,71.12
2023-05-24T20:50:10.393Z,71.15
2023-05-24T20:52:38.838Z,71.04
2023-05-24T20:55:08.508Z,71.07
2023-05-24T20:57:36.897Z,71.23
2023-05-24T21:00:08.325Z,71.34
2023-05-24T21:02:36.929Z,71.49
2023-05-24T21:05:06.540Z,71.27
2023-05-24T21:07:37.931Z,71.45
2023-05-24T21:10:08.777Z,71.42
2023-05-24T21:12:37.242Z,71.56
2023-05-24T21:15:07.452Z,71.56
2023-05-24T21:17:36.002Z,71.57
2023-05-24T21:20:05.480Z,71.61
2023-05-24T21:22:33.918Z,71.73
2023-05-24T21:25:02.378Z,71.48
2023-05-24T21:27:30.812Z,71.70
2023-05-24T21:29:59.282Z,72.04
2023-05-24T21:32:27.782Z,72.12
2023-05-24T21:34:56.200Z,72.17
2023-05-24T21:37:24.773Z,72.07
2023-05-24T21:39:53.573Z,72.24
2023-05-24T21:42:22.033Z,72.20
2023-05-24T21:44:50.444Z,72.00
2023-05-24T21:47:18.766Z,72.19
2023-05-24T21:49:47.144Z,72.22
2023-05-24T21:52:15.528Z,72.32
2023-05-24T21:54:43.997Z,72.47
2023-05-24T21:57:12.283Z,72.47
2023-05-24T21:59:40.776Z,72.57
2023-05-24T22:02:09.396Z,72.51
2023-05-24T22:04:37.948Z,72.40
2023-05-24T22:07:06.351Z,72.32
2023-05-24T22:09:34.765Z,71.96
2023-05-24T22:12:03.425Z,72.28
2023-05-24T22:14:31.805Z,72.29
2023-05-24T22:17:00.386Z,72.40
2023-05-24T22:19:39.501Z,72.53
2023-05-24T22:22:09.722Z,72.69
2023-05-24T22:24:38.112Z,72.58
2023-05-24T22:27:09.002Z,72.49
2023-05-24T22:29:37.299Z,72.72
2023-05-24T22:32:06.250Z,72.82
2023-05-24T22:34:34.678Z,72.82
2023-05-24T22:37:03.118Z,72.91
2023-05-24T22:39:31.536Z,73.12
2023-05-24T22:42:00.922Z,72.97
2023-05-24T22:44:29.314Z,73.02
2023-05-24T22:46:57.655Z,72.97
2023-05-24T22:49:28.841Z,73.08
2023-05-24T22:51:57.265Z,73.16
2023-05-24T22:54:25.853Z,73.23
2023-05-24T22:56:54.250Z,73.18
2023-05-24T22:59:22.793Z,73.22
2023-05-24T23:01:51.820Z,73.22
2023-05-24T23:04:21.850Z,73.28
2023-05-24T23:06:51.701Z,73.19
2023-05-24T23:09:33.201Z,73.25
2023-05-24T23:12:06.547Z,73.52
2023-05-24T23:14:37.747Z,73.27
2023-05-24T23:17:06.500Z,73.56
2023-05-24T23:19:41.518Z,73.44
2023-05-24T23:22:11.240Z,73.56
2023-05-24T23:24:41.338Z,73.53
2023-05-24T23:27:09.869Z,73.79
2023-05-24T23:29:38.575Z,73.68
2023-05-24T23:32:08.546Z,73.68
2023-05-24T23:34:36.937Z,73.71
2023-05-24T23:37:05.808Z,73.76
2023-05-24T23:39:34.351Z,73.85
2023-05-24T23:42:03.077Z,73.96
2023-05-24T23:44:31.634Z,73.97
2023-05-24T23:47:01.325Z,74.03
2023-05-24T23:49:30.044Z,73.95
2023-05-24T23:51:58.445Z,73.97
2023-05-24T23:54:26.821Z,74.03
2023-05-24T23:56:55.237Z,74.03
2023-05-24T23:59:23.591Z,74.25
